Airfield :
LOGIN :

Register | Disclaimer

   EN    FR    IT 

 










Legend :    VFR   Marginal VFR   IFR   Intensive IFR   Very Intensive IFR
Visi :
Ceiling :
>= 8 km
>= 3000ft
5 to 8 km
1000 to 3000 ft
1500m to 5 km
500 to 1000 ft
800 to 1500m
200 to 500 ft
< 800m
< 200 ft
Symbols :   Thunderstorms  Fog  Heavy snow  Heavy precipitations  Wind > 20 kt
SIGMETs :     Misc.  Thunderstorms  Icing  Turbulence  Mountain Waves  Volcanic Ashes






- Airport Elevation : 31 ft
- IATA code : INV


EGPE - Inverness

CURRENT METAR :
  • 270450Z 22008KT 9999 VCSH FEW015 SCT022 M00/M02 Q0992

EXPIRED METARs :
  • 270350Z 22006KT 9999 VCSH FEW015 SCT022 M00/M01 Q0993
  • 270320Z 22011KT 9999 VCSH FEW015 BKN049 01/M01 Q0993
  • 270250Z 22010KT 9999 VCSH FEW015 BKN049 01/M01 Q0993

TAF TAF EGPE
Valid from the 27 at 03:00 until the 27 at 12:00 UTC


270156Z 2703/2712 22009KT 9999 SCT020
TEMPO 2703/2712 23015G25KT 5000 SHRASN
PROB40
TEMPO 2708/2712 2000 SHSN
ATIS : +44 1667 464 255



MET'MAP, your aeronautical weather chart ! - Copyright ORBIFLY December 2007 - Disclaimer

ORBIFLY MET'MAP TEAM :

Programming & Development : Alexandra Zaïnal
Concept & original design : Baudouin d'Aumeries
Assistance for programming : Marc-Olivier Méhu
Technical & hardware support : Manuel Goepfert

Contact : metmap@orbifly.com




SOURCES & CREDITS :

   NOAA